createdAt,value
2019-05-19T00:02:27.314Z,8.55
2019-05-19T00:06:30.789Z,7.83
2019-05-19T00:10:34.796Z,8.43
2019-05-19T00:14:38.323Z,10.38
2019-05-19T00:18:42.013Z,9.10
2019-05-19T00:22:45.485Z,9.10
2019-05-19T00:26:48.948Z,10.23
2019-05-19T00:30:52.418Z,9.60
2019-05-19T00:34:55.871Z,7.65
2019-05-19T00:38:59.610Z,10.45
2019-05-19T00:43:03.065Z,10.60
2019-05-19T00:47:06.774Z,12.58
2019-05-19T00:51:10.557Z,9.78
2019-05-19T00:55:15.103Z,9.40
2019-05-19T00:59:19.590Z,8.68
2019-05-19T01:03:23.050Z,10.55
2019-05-19T01:07:26.785Z,11.40
2019-05-19T01:11:30.531Z,11.50
2019-05-19T01:15:33.977Z,11.10
2019-05-19T01:19:37.438Z,11.40
2019-05-19T01:23:40.901Z,11.50
2019-05-19T01:27:44.631Z,13.03
2019-05-19T01:31:48.086Z,15.08
2019-05-19T01:35:51.585Z,12.60
2019-05-19T01:39:55.358Z,10.13
2019-05-19T01:43:58.838Z,14.58
2019-05-19T01:48:02.579Z,11.15
2019-05-19T01:52:06.034Z,11.57
2019-05-19T01:56:09.521Z,11.57
2019-05-19T02:00:13.511Z,12.43
2019-05-19T02:04:16.971Z,12.00
2019-05-19T02:08:20.694Z,10.78
2019-05-19T02:12:24.423Z,11.45
2019-05-19T02:16:27.995Z,11.85
2019-05-19T02:20:33.632Z,12.85
2019-05-19T02:24:36.594Z,11.00
2019-05-19T02:28:40.306Z,13.77
2019-05-19T02:32:43.779Z,23.67
2019-05-19T02:36:47.243Z,34.60
2019-05-19T02:40:56.414Z,39.65
2019-05-19T02:45:01.249Z,31.73
2019-05-19T02:49:05.638Z,27.67
2019-05-19T02:53:09.555Z,29.87
2019-05-19T02:57:13.321Z,25.23
2019-05-19T03:01:16.765Z,24.55
2019-05-19T03:05:20.475Z,19.10
2019-05-19T03:09:24.195Z,21.10
2019-05-19T03:13:27.655Z,20.77
2019-05-19T03:17:31.112Z,25.25
2019-05-19T03:21:34.592Z,33.35
2019-05-19T03:25:38.299Z,20.23
2019-05-19T03:29:46.714Z,18.32
2019-05-19T03:33:51.847Z,20.88
2019-05-19T03:37:55.380Z,25.93
2019-05-19T03:41:59.108Z,24.52
2019-05-19T03:46:02.578Z,62.93
2019-05-19T03:50:06.579Z,48.87
2019-05-19T03:54:10.318Z,54.25
2019-05-19T03:58:14.099Z,55.03
2019-05-19T04:02:17.565Z,56.15
2019-05-19T04:06:21.006Z,63.45
2019-05-19T04:10:24.486Z,67.62
2019-05-19T04:14:28.222Z,138.60
2019-05-19T04:18:31.689Z,71.53
2019-05-19T04:22:35.443Z,83.27
2019-05-19T04:26:39.207Z,74.82
2019-05-19T04:30:42.689Z,73.33
2019-05-19T04:34:46.169Z,55.75
2019-05-19T04:38:49.912Z,46.65
2019-05-19T04:42:53.361Z,56.83
2019-05-19T04:46:56.826Z,51.00
2019-05-19T04:51:00.542Z,82.45
2019-05-19T04:55:04.542Z,59.60
2019-05-19T04:59:08.008Z,75.40
2019-05-19T05:03:11.492Z,57.03
2019-05-19T05:07:15.203Z,50.00
2019-05-19T05:11:18.706Z,55.12
2019-05-19T05:15:22.172Z,47.38
2019-05-19T05:19:25.638Z,44.58
2019-05-19T05:23:29.483Z,47.80
2019-05-19T05:27:33.072Z,53.05
2019-05-19T05:31:36.750Z,50.55
2019-05-19T05:35:40.639Z,48.23
2019-05-19T05:39:44.334Z,50.15
2019-05-19T05:43:50.630Z,50.90
2019-05-19T05:47:54.503Z,52.27
2019-05-19T05:51:58.261Z,55.35
2019-05-19T05:56:01.722Z,49.58
2019-05-19T06:00:09.523Z,50.40
2019-05-19T06:04:13.000Z,61.90
2019-05-19T06:08:16.739Z,51.00
2019-05-19T06:12:20.300Z,56.83
2019-05-19T06:16:24.703Z,54.08
2019-05-19T06:20:28.228Z,67.37
2019-05-19T06:24:32.046Z,55.00
2019-05-19T06:28:35.788Z,61.27
2019-05-19T06:32:41.159Z,55.05
2019-05-19T06:36:44.621Z,51.13
2019-05-19T06:40:48.164Z,56.53
2019-05-19T06:44:51.883Z,51.08
2019-05-19T06:48:55.659Z,50.03
2019-05-19T06:53:12.688Z,47.90
2019-05-19T06:57:04.579Z,43.53
2019-05-19T07:01:08.167Z,47.70
2019-05-19T07:05:11.722Z,45.43
2019-05-19T07:09:15.545Z,44.70
2019-05-19T07:13:19.070Z,40.45
2019-05-19T07:17:22.542Z,38.15
2019-05-19T07:21:26.338Z,37.48
2019-05-19T07:25:30.069Z,39.20
2019-05-19T07:29:33.882Z,39.55
2019-05-19T07:33:37.594Z,38.02
2019-05-19T07:37:41.122Z,36.73
2019-05-19T07:41:44.606Z,35.52
2019-05-19T07:45:48.074Z,35.78
2019-05-19T07:49:51.554Z,35.83
2019-05-19T07:53:55.338Z,37.08
2019-05-19T07:57:58.796Z,35.35
2019-05-19T08:02:02.333Z,36.68
2019-05-19T08:06:06.386Z,34.33
2019-05-19T08:10:10.140Z,34.33
2019-05-19T08:14:14.123Z,37.10
2019-05-19T08:18:17.594Z,35.88
2019-05-19T08:22:21.122Z,34.20
2019-05-19T08:26:24.842Z,34.08
2019-05-19T08:30:28.769Z,42.70
2019-05-19T08:34:32.571Z,27.25
2019-05-19T08:38:36.102Z,28.52
2019-05-19T08:42:39.595Z,26.57
2019-05-19T08:46:43.157Z,26.75
2019-05-19T08:50:46.652Z,26.30
2019-05-19T08:54:50.121Z,24.77
2019-05-19T08:58:53.821Z,23.22
2019-05-19T09:02:57.274Z,21.20
2019-05-19T09:07:00.737Z,20.62
2019-05-19T09:11:04.245Z,21.07
2019-05-19T09:15:08.362Z,18.85
2019-05-19T09:19:11.830Z,16.85
2019-05-19T09:23:15.293Z,16.12
2019-05-19T09:27:18.769Z,17.75
2019-05-19T09:31:22.226Z,16.23
2019-05-19T09:35:25.699Z,17.60
2019-05-19T09:39:29.285Z,16.23
2019-05-19T09:43:32.756Z,14.93
2019-05-19T09:47:36.230Z,15.20
2019-05-19T09:51:39.757Z,15.05
2019-05-19T09:55:43.233Z,15.90
2019-05-19T09:59:46.683Z,16.07
2019-05-19T10:03:50.147Z,17.23
2019-05-19T10:07:53.618Z,15.63
2019-05-19T10:12:05.315Z,17.90
2019-05-19T10:16:08.848Z,17.17
2019-05-19T10:20:14.102Z,17.57
2019-05-19T10:24:17.599Z,15.13
2019-05-19T10:28:21.323Z,15.85
2019-05-19T10:32:25.039Z,14.15
2019-05-19T10:36:28.755Z,17.23
2019-05-19T10:40:32.206Z,16.73
2019-05-19T10:44:35.930Z,13.55
2019-05-19T10:48:39.402Z,14.70
2019-05-19T10:52:42.858Z,14.25
2019-05-19T10:56:46.314Z,12.35
2019-05-19T11:00:49.793Z,14.18
2019-05-19T11:04:53.512Z,11.55
2019-05-19T11:08:56.982Z,11.57
2019-05-19T11:13:00.438Z,16.02
2019-05-19T11:17:03.911Z,14.63
2019-05-19T11:21:07.674Z,12.00
2019-05-19T11:25:12.033Z,11.10
2019-05-19T11:29:15.502Z,8.75
2019-05-19T11:33:18.965Z,10.00
2019-05-19T11:37:22.423Z,14.58
2019-05-19T11:41:25.877Z,11.65
2019-05-19T11:45:29.331Z,9.43
2019-05-19T11:49:32.814Z,7.67
2019-05-19T11:53:36.321Z,7.42
2019-05-19T11:57:39.783Z,6.75
2019-05-19T12:01:43.313Z,11.35
2019-05-19T12:05:47.011Z,11.83
2019-05-19T12:09:50.746Z,9.48
2019-05-19T12:13:54.466Z,11.53
2019-05-19T12:17:58.259Z,10.25
2019-05-19T12:22:01.805Z,9.25
2019-05-19T12:26:05.541Z,10.57
2019-05-19T12:30:11.371Z,10.98
2019-05-19T12:34:14.839Z,11.00
2019-05-19T12:38:18.329Z,11.80
2019-05-19T12:42:22.058Z,9.60
2019-05-19T12:46:25.511Z,11.70
2019-05-19T12:50:28.989Z,7.83
2019-05-19T12:54:32.523Z,8.70
2019-05-19T12:58:36.362Z,9.40
2019-05-19T13:02:40.159Z,11.90
2019-05-19T13:06:43.664Z,9.03
2019-05-19T13:10:47.130Z,9.03
2019-05-19T13:14:50.870Z,9.33
2019-05-19T13:18:54.323Z,8.58
2019-05-19T13:22:57.833Z,6.33
2019-05-19T13:27:01.565Z,5.05
2019-05-19T13:31:05.123Z,6.20
2019-05-19T13:35:08.876Z,5.30
2019-05-19T13:39:12.547Z,8.38
2019-05-19T13:43:16.418Z,6.25
2019-05-19T13:47:20.254Z,6.53
2019-05-19T13:51:23.735Z,6.47
2019-05-19T13:55:27.267Z,6.33
2019-05-19T13:59:31.215Z,13.05
2019-05-19T14:03:34.719Z,8.45
2019-05-19T14:07:38.277Z,8.93
2019-05-19T14:11:41.774Z,8.48
2019-05-19T14:15:45.466Z,8.83
2019-05-19T14:19:49.247Z,6.25
2019-05-19T14:23:54.568Z,7.65
2019-05-19T14:27:58.123Z,8.93
2019-05-19T14:32:01.635Z,8.15
2019-05-19T14:36:05.205Z,7.28
2019-05-19T14:40:09.211Z,7.05
2019-05-19T14:44:12.655Z,7.28
2019-05-19T14:48:16.353Z,6.37
2019-05-19T14:52:19.845Z,5.60
2019-05-19T14:56:24.113Z,6.22
2019-05-19T15:00:27.638Z,5.67
2019-05-19T15:04:31.120Z,5.80
2019-05-19T15:08:34.570Z,8.20
2019-05-19T15:12:38.010Z,6.80
2019-05-19T15:16:41.465Z,7.77
2019-05-19T15:20:44.927Z,7.65
2019-05-19T15:24:48.383Z,5.00
2019-05-19T15:28:51.837Z,7.62
2019-05-19T15:32:55.286Z,5.87
2019-05-19T15:36:59.065Z,5.78
2019-05-19T15:41:02.575Z,7.03
2019-05-19T15:45:06.371Z,5.83
2019-05-19T15:49:09.821Z,7.55
2019-05-19T15:53:13.265Z,6.23
2019-05-19T15:57:16.710Z,7.03
2019-05-19T16:01:20.196Z,6.58
2019-05-19T16:05:23.710Z,7.22
2019-05-19T16:09:27.204Z,8.25
2019-05-19T16:13:30.658Z,6.62
2019-05-19T16:17:34.210Z,10.35
2019-05-19T16:21:38.190Z,8.88
2019-05-19T16:25:41.649Z,7.55
2019-05-19T16:29:45.110Z,7.92
2019-05-19T16:33:48.828Z,6.25
2019-05-19T16:37:52.278Z,8.75
2019-05-19T16:41:55.760Z,8.95
2019-05-19T16:45:59.477Z,6.87
2019-05-19T16:50:03.211Z,11.50
2019-05-19T16:54:08.547Z,10.23
2019-05-19T16:58:21.051Z,8.40
2019-05-19T17:02:17.174Z,8.83
2019-05-19T17:06:20.630Z,7.80
2019-05-19T17:10:24.335Z,8.08
2019-05-19T17:14:28.103Z,7.95
2019-05-19T17:18:31.569Z,9.28
2019-05-19T17:22:35.293Z,9.15
2019-05-19T17:26:38.769Z,10.98
2019-05-19T17:30:42.229Z,9.97
2019-05-19T17:34:45.673Z,7.60
2019-05-19T17:38:49.135Z,9.90
2019-05-19T17:42:52.591Z,7.00
2019-05-19T17:46:56.073Z,9.28
2019-05-19T17:51:00.411Z,7.42
2019-05-19T17:55:05.274Z,8.68
2019-05-19T17:59:16.234Z,7.75
2019-05-19T18:03:13.896Z,9.47
2019-05-19T18:07:17.362Z,6.67
2019-05-19T18:11:20.817Z,9.03
2019-05-19T18:15:24.524Z,7.15
2019-05-19T18:19:27.975Z,7.45
2019-05-19T18:23:31.685Z,7.87
2019-05-19T18:27:35.248Z,8.55
2019-05-19T18:31:38.722Z,7.12
2019-05-19T18:35:42.549Z,6.95
2019-05-19T18:39:46.070Z,6.65
2019-05-19T18:43:49.514Z,8.50
2019-05-19T18:47:53.048Z,8.10
2019-05-19T18:51:56.842Z,8.20
2019-05-19T18:56:00.748Z,7.20
2019-05-19T19:00:05.728Z,9.80
2019-05-19T19:04:09.329Z,7.47
2019-05-19T19:08:12.876Z,9.05
2019-05-19T19:12:16.329Z,9.23
2019-05-19T19:16:19.822Z,10.40
2019-05-19T19:20:23.432Z,9.28
2019-05-19T19:24:27.165Z,7.70
2019-05-19T19:28:30.935Z,7.97
2019-05-19T19:32:34.397Z,7.15
2019-05-19T19:36:37.879Z,8.05
2019-05-19T19:40:41.363Z,7.62
2019-05-19T19:44:44.886Z,8.93
2019-05-19T19:48:48.558Z,7.87
2019-05-19T19:52:52.042Z,7.35
2019-05-19T19:56:55.576Z,8.25
2019-05-19T20:00:59.030Z,8.75
2019-05-19T20:05:02.568Z,11.95
2019-05-19T20:09:06.200Z,8.30
2019-05-19T20:13:10.042Z,9.45
2019-05-19T20:17:13.554Z,8.65
2019-05-19T20:21:17.013Z,8.75
2019-05-19T20:25:20.475Z,11.35
2019-05-19T20:29:24.267Z,9.85
2019-05-19T20:33:28.055Z,10.30
2019-05-19T20:37:31.501Z,9.75
2019-05-19T20:41:34.946Z,9.90
2019-05-19T20:45:38.391Z,8.68
2019-05-19T20:49:41.881Z,8.95
2019-05-19T20:53:45.337Z,10.53
2019-05-19T20:57:48.794Z,9.23
2019-05-19T21:01:52.245Z,9.73
2019-05-19T21:05:55.949Z,9.93
2019-05-19T21:09:59.428Z,12.15
2019-05-19T21:14:02.875Z,11.53
2019-05-19T21:18:06.339Z,10.75
2019-05-19T21:22:09.871Z,14.78
2019-05-19T21:26:13.574Z,12.58
2019-05-19T21:30:17.813Z,10.23
2019-05-19T21:34:21.279Z,11.18
2019-05-19T21:38:24.734Z,9.75
2019-05-19T21:42:28.475Z,11.08
2019-05-19T21:46:31.930Z,9.85
2019-05-19T21:50:35.465Z,8.83
2019-05-19T21:54:38.915Z,10.10
2019-05-19T21:58:42.406Z,14.75
2019-05-19T22:02:45.886Z,9.85
2019-05-19T22:06:54.009Z,11.93
2019-05-19T22:10:57.490Z,11.95
2019-05-19T22:15:00.951Z,10.90
2019-05-19T22:19:04.859Z,15.25
2019-05-19T22:23:08.320Z,9.73
2019-05-19T22:27:11.765Z,11.63
2019-05-19T22:31:15.216Z,13.22
2019-05-19T22:35:18.949Z,11.70
2019-05-19T22:39:22.389Z,12.95
2019-05-19T22:43:25.854Z,13.80
2019-05-19T22:47:29.587Z,12.95
2019-05-19T22:51:33.059Z,12.25
2019-05-19T22:55:36.517Z,12.05
2019-05-19T22:59:39.985Z,12.30
2019-05-19T23:03:43.707Z,13.45
2019-05-19T23:07:47.154Z,13.40
2019-05-19T23:11:50.714Z,15.43
2019-05-19T23:15:54.162Z,14.93
2019-05-19T23:19:57.899Z,17.40
2019-05-19T23:24:01.373Z,16.30
2019-05-19T23:28:05.141Z,17.37
2019-05-19T23:32:08.600Z,12.95
2019-05-19T23:36:12.050Z,14.58
2019-05-19T23:40:15.572Z,17.17
2019-05-19T23:44:19.462Z,17.07
2019-05-19T23:48:22.919Z,17.77
2019-05-19T23:52:26.376Z,20.13
2019-05-19T23:56:29.829Z,19.40
